KHQM/HQM METAR and TAF weather

Enter ICAO airport designator
Station Type Date Time Source
KHQM METAR 2020/08/15 15:53 UTC NOAA

KHQM 151553Z AUTO 07008KT 10SM CLR 20/12 A3004 RMK AO2 SLP175 T02000122


Station Type Date Time Source
KHQM Decoded METAR 2020/08/15 15:53 UTC NOAA

HOQUIAM BOWERMAN AIRPORT, WA, United States (KHQM) 46-58N 123-56W 7M
Aug 15, 2020 - 11:53 AM EDT / 2020.08.15 1553 UTC
Wind: from the ENE (070 degrees) at 9 MPH (8 KT):0
Visibility: 10 mile(s):0
Sky conditions: clear
Temperature: 68.0 F (20.0 C)
Dew Point: 54.0 F (12.2 C)
Relative Humidity: 60%
Pressure (altimeter): 30.04 in. Hg (1017 hPa)
ob: KHQM 151553Z AUTO 07008KT 10SM CLR 20/12 A3004 RMK AO2 SLP175 T02000122
cycle: 16

Station Type Date Time Source
KHQM TAF 2020/08/15 12:36 UTC NOAA

TAF KHQM 151135Z 1512/1612 07003KT P6SM SKC
FM151600 07005KT P6SM SKC
FM152200 25010KT P6SM SKC
FM160500 13006KT P6SM SKC

Example: see airport list